Briefing drone pour Val-de-reuil

Rechercher une autre localisation

Conditions de vol :


Nous sommes le : Vendredi 26 février 2021
Il est 20:56 UTC (21:56 LT)

Lever de soleil : 06:16 UTC (07:16 LT)
Coucher de soleil : 17:59 UTC (18:59 LT)

Météo

L'essentiel des conditions de vol

VIGILANCE MÉTÉO FRANCE - Eure (27)
Pas de vigilances particulieres
METAR de LFOP
LFOP 262030Z AUTO 02007KT CAVOK 05/01 Q1038 NOSIG

Date d'émission: 26/02/2021
Heure d'émission: 20:30 UTC
Vent: 020° pour 7 KT (13 km/h)
Visibilité horizontale: > 10 km
Plafond : Plafond et visibilité OK (CAVOK)
Température: 5 °C
Point de rosée: 1 °C
Humidité: 75%
Pression (QNH): 1038 hPa
Conditions: Pas de changement dans les 2 heures (NOSIG)
TAF de LFOP
LFOP 261700Z 2618/2718 01007KT CAVOK

Conditions prévues :

Heure d'émission : Bulletin éffectué le 26 à 18:00 UTC
Prévision : Valide du 26 a 18:00 UTC au 27 a 18:00 UTC
Vent : 10° pour 7 KT (13 km/h)
Visibilité : > 10 km
WEBCAM POUR VAL-DE-REUIL

Réglementation

Voler en sécurité

CARTES AERONAUTIQUE 1/500.000
CARTES VAC (LFOP)
SUP AIP




Chargement des AIP...
NOTAM (VAL-DE-REUIL + Terrain à proximité / FIR )




Chargement des NOTAMS...
CONTACT PREFECTURE 27


Avertissement : Les données mises à disposition sont indicatives. Oxygène Drone ne pourra être tenu responsable de dégâts causés aux biens et aux personnes.